Time;durP1;ratioP1;P1;durP2;ratioP2;P2;SDS_P1;SDS_P2;PMS_P1;PMS_P2;Temp;Humidity;BMP_temperature;BMP_pressure;BME280_temperature;BME280_humidity;BME280_pressure;Samples;Min_cycle;Max_cycle;Signal;HPM_P1;HPM_P2
2022/09/26 00:01:02;;;;;;;;;;;12.30;99.90;;;;;;5095969;28;19998;-76
2022/09/26 00:03:28;;;;;;;;;;;12.00;99.90;;;;;;5096091;28;19908;-80
2022/09/26 00:05:58;;;;;;;;;;;12.00;99.90;;;;;;5096071;28;19960;-79
2022/09/26 00:08:24;;;;;;;;;;;12.20;99.90;;;;;;5095904;28;19908;-80
2022/09/26 00:10:54;;;;;;;;;;;12.10;99.90;;;;;;5095780;28;20284;-78
2022/09/26 00:13:19;;;;;;;;;;;12.10;99.90;;;;;;5096388;28;19909;-78
2022/09/26 00:15:46;;;;;;;;;;;12.00;99.90;;;;;;5095814;28;19931;-81
2022/09/26 00:18:11;;;;;;;;;;;12.00;99.90;;;;;;5095582;28;19912;-79
2022/09/26 00:20:37;;;;;;;;;;;12.10;99.90;;;;;;5095575;28;19947;-79
2022/09/26 00:23:03;;;;;;;;;;;12.00;99.90;;;;;;5095514;28;19909;-80
2022/09/26 00:25:28;;;;;;;;;;;11.90;99.90;;;;;;5095536;28;19912;-80
2022/09/26 00:27:54;;;;;;;;;;;11.70;99.90;;;;;;5095476;28;20294;-77
2022/09/26 00:30:19;;;;;;;;;;;11.80;99.90;;;;;;5095362;28;20007;-79
2022/09/26 00:32:45;;;;;;;;;;;12.00;99.90;;;;;;5094007;28;19912;-77
2022/09/26 00:35:10;;;;;;;;;;;12.10;99.90;;;;;;5095559;28;19908;-77
2022/09/26 00:37:36;;;;;;;;;;;11.90;99.90;;;;;;5095125;28;19916;-78
2022/09/26 00:40:02;;;;;;;;;;;11.70;99.90;;;;;;5095206;28;19999;-79
2022/09/26 00:42:27;;;;;;;;;;;11.60;99.90;;;;;;5095144;28;20262;-81
2022/09/26 00:44:53;;;;;;;;;;;11.40;99.90;;;;;;5095424;28;19908;-83
2022/09/26 00:47:25;;;;;;;;;;;11.70;99.90;;;;;;5095860;28;19935;-79
2022/09/26 00:49:54;;;;;;;;;;;11.70;99.90;;;;;;5094798;28;19927;-79
2022/09/26 00:52:49;;;;;;;;;;;11.80;99.90;;;;;;5094957;28;19908;-80
2022/09/26 00:55:18;;;;;;;;;;;11.80;99.90;;;;;;5081376;28;20445;-81
2022/09/26 00:57:47;;;;;;;;;;;11.80;99.90;;;;;;5094787;28;20280;-78
2022/09/26 01:00:16;;;;;;;;;;;12.00;99.90;;;;;;5094818;28;19908;-80
2022/09/26 01:02:42;;;;;;;;;;;12.20;99.90;;;;;;5094905;28;19908;-78
2022/09/26 01:05:09;;;;;;;;;;;12.30;99.90;;;;;;5094682;28;19916;-80
2022/09/26 01:07:35;;;;;;;;;;;12.30;99.90;;;;;;5094619;28;20056;-82
2022/09/26 01:10:03;;;;;;;;;;;12.50;99.90;;;;;;5094591;28;19920;-76
2022/09/26 01:12:29;;;;;;;;;;;12.40;99.90;;;;;;5094597;28;19943;-78
2022/09/26 01:14:55;;;;;;;;;;;12.40;99.90;;;;;;5094494;28;19912;-78
2022/09/26 01:17:22;;;;;;;;;;;12.40;99.90;;;;;;5094376;28;19912;-77
2022/09/26 01:20:06;;;;;;;;;;;12.50;99.90;;;;;;5094436;28;20319;-79
2022/09/26 01:22:32;;;;;;;;;;;12.50;99.90;;;;;;5094373;28;19908;-80
2022/09/26 01:25:24;;;;;;;;;;;12.40;99.90;;;;;;5094299;28;19908;-77
2022/09/26 01:27:49;;;;;;;;;;;12.40;99.90;;;;;;5062173;28;20313;-78
2022/09/26 01:30:18;;;;;;;;;;;12.40;99.90;;;;;;5094542;28;19915;-80
2022/09/26 01:32:49;;;;;;;;;;;12.40;99.90;;;;;;5094267;28;19915;-81
2022/09/26 01:35:26;;;;;;;;;;;12.40;99.90;;;;;;5092873;28;20383;-77
2022/09/26 01:37:55;;;;;;;;;;;12.30;99.90;;;;;;5094641;28;19912;-81
2022/09/26 01:40:30;;;;;;;;;;;12.50;99.90;;;;;;5094137;28;20272;-82
2022/09/26 01:43:14;;;;;;;;;;;12.10;99.90;;;;;;5094223;28;19908;-79
2022/09/26 01:45:39;;;;;;;;;;;11.70;99.90;;;;;;5094012;28;20288;-78
2022/09/26 01:48:09;;;;;;;;;;;11.50;99.90;;;;;;5094343;28;19973;-76
2022/09/26 01:50:35;;;;;;;;;;;11.60;99.90;;;;;;5094229;28;19916;-79
2022/09/26 01:53:05;;;;;;;;;;;11.70;99.90;;;;;;5093438;28;20290;-82
2022/09/26 01:55:34;;;;;;;;;;;11.40;99.90;;;;;;5093980;28;20399;-77
2022/09/26 01:58:35;;;;;;;;;;;11.30;99.90;;;;;;5093917;28;20380;-79
2022/09/26 02:01:03;;;;;;;;;;;11.50;99.90;;;;;;5031809;28;20373;-77
2022/09/26 02:03:34;;;;;;;;;;;11.80;99.90;;;;;;5081863;28;19915;-80
2022/09/26 02:06:02;;;;;;;;;;;12.00;99.90;;;;;;5093850;28;19908;-78
2022/09/26 02:08:36;;;;;;;;;;;12.00;99.90;;;;;;5094232;28;20418;-78
2022/09/26 02:11:05;;;;;;;;;;;11.90;99.90;;;;;;5092204;28;19915;-80
2022/09/26 02:13:34;;;;;;;;;;;11.60;99.90;;;;;;5093945;28;19944;-78
2022/09/26 02:16:04;;;;;;;;;;;11.60;99.90;;;;;;5093710;28;20356;-79
2022/09/26 02:18:45;;;;;;;;;;;11.90;99.90;;;;;;5093656;28;19919;-78
2022/09/26 02:21:16;;;;;;;;;;;11.50;99.90;;;;;;5096585;28;19999;-80
2022/09/26 02:23:42;;;;;;;;;;;11.50;99.90;;;;;;5098000;28;20352;-78
2022/09/26 02:26:08;;;;;;;;;;;11.50;99.90;;;;;;5097792;28;19908;-77
2022/09/26 02:28:33;;;;;;;;;;;11.80;99.90;;;;;;5097771;28;19908;-77
2022/09/26 02:31:00;;;;;;;;;;;11.90;99.90;;;;;;5097721;28;19908;-79
2022/09/26 02:33:26;;;;;;;;;;;11.90;99.90;;;;;;5097677;28;19908;-79
2022/09/26 02:35:55;;;;;;;;;;;11.90;99.90;;;;;;5097677;28;19915;-80
2022/09/26 02:38:22;;;;;;;;;;;12.10;99.90;;;;;;5097919;28;20007;-77
2022/09/26 02:41:06;;;;;;;;;;;12.10;99.90;;;;;;5097570;28;20002;-79
2022/09/26 02:43:43;;;;;;;;;;;12.10;99.90;;;;;;5097614;28;19908;-80
2022/09/26 02:46:12;;;;;;;;;;;12.20;99.90;;;;;;5097302;28;19915;-81
2022/09/26 02:48:41;;;;;;;;;;;12.20;99.90;;;;;;5097829;28;19926;-80
2022/09/26 02:51:06;;;;;;;;;;;12.10;99.90;;;;;;5097357;28;19912;-79
2022/09/26 02:53:35;;;;;;;;;;;12.20;99.90;;;;;;5097316;28;19908;-78
2022/09/26 02:56:06;;;;;;;;;;;12.20;99.90;;;;;;5097143;28;20443;-78
2022/09/26 02:58:41;;;;;;;;;;;12.30;99.90;;;;;;5097018;28;19912;-79
2022/09/26 03:01:14;;;;;;;;;;;12.30;99.90;;;;;;5097216;28;20369;-79
2022/09/26 03:03:49;;;;;;;;;;;12.30;99.90;;;;;;5097144;28;19962;-80
2022/09/26 03:06:17;;;;;;;;;;;12.30;99.90;;;;;;5097469;28;19912;-78
2022/09/26 03:08:45;;;;;;;;;;;12.30;99.90;;;;;;5097143;28;19957;-81
2022/09/26 03:11:12;;;;;;;;;;;12.00;99.90;;;;;;5096951;28;20361;-80
2022/09/26 03:13:39;;;;;;;;;;;11.80;99.90;;;;;;5096997;28;19908;-80
2022/09/26 03:16:05;;;;;;;;;;;11.60;99.90;;;;;;5096842;28;19912;-78
2022/09/26 03:18:34;;;;;;;;;;;11.50;99.90;;;;;;5096938;28;20392;-80
2022/09/26 03:21:00;;;;;;;;;;;11.50;99.90;;;;;;5095486;28;20312;-79
2022/09/26 03:23:26;;;;;;;;;;;11.40;99.90;;;;;;5096878;28;20001;-80
2022/09/26 03:26:03;;;;;;;;;;;11.30;99.90;;;;;;5096696;28;20288;-77
2022/09/26 03:28:28;;;;;;;;;;;11.20;99.90;;;;;;5096930;28;19909;-81
2022/09/26 03:30:54;;;;;;;;;;;11.10;99.90;;;;;;5096795;28;20083;-75
2022/09/26 03:33:20;;;;;;;;;;;11.30;99.90;;;;;;5095433;28;19915;-78
2022/09/26 03:35:45;;;;;;;;;;;11.60;99.90;;;;;;5096404;28;19916;-81
2022/09/26 03:38:11;;;;;;;;;;;11.60;99.90;;;;;;5096415;28;20291;-80
2022/09/26 03:40:36;;;;;;;;;;;11.90;99.90;;;;;;5096640;28;19908;-78
2022/09/26 03:43:02;;;;;;;;;;;12.00;99.90;;;;;;5096428;28;20330;-76
2022/09/26 03:45:28;;;;;;;;;;;12.00;99.90;;;;;;5096173;28;19999;-78
2022/09/26 03:47:57;;;;;;;;;;;12.00;99.90;;;;;;5096571;28;19908;-80
2022/09/26 03:50:23;;;;;;;;;;;11.90;99.90;;;;;;5096389;28;20007;-76
2022/09/26 03:52:49;;;;;;;;;;;11.80;99.90;;;;;;5096320;28;20360;-78
2022/09/26 03:55:14;;;;;;;;;;;11.60;99.90;;;;;;5096087;28;20273;-81
2022/09/26 03:57:40;;;;;;;;;;;11.70;99.90;;;;;;5096008;28;19919;-77
2022/09/26 04:00:08;;;;;;;;;;;11.50;99.90;;;;;;5095960;28;19913;-79
2022/09/26 04:02:33;;;;;;;;;;;11.60;99.90;;;;;;5096244;28;20292;-77
2022/09/26 04:04:59;;;;;;;;;;;11.60;99.90;;;;;;5095970;28;19915;-78
2022/09/26 04:07:25;;;;;;;;;;;11.70;99.90;;;;;;5096077;28;20452;-80
2022/09/26 04:09:50;;;;;;;;;;;11.80;99.90;;;;;;5094468;28;19915;-77
2022/09/26 04:12:16;;;;;;;;;;;11.80;99.90;;;;;;5094492;28;19908;-78
2022/09/26 04:14:42;;;;;;;;;;;11.90;99.90;;;;;;5095781;28;20419;-81
2022/09/26 04:17:08;;;;;;;;;;;11.90;99.90;;;;;;5095669;28;20025;-78
2022/09/26 04:19:34;;;;;;;;;;;11.60;99.90;;;;;;5095740;28;19908;-80
2022/09/26 04:21:59;;;;;;;;;;;11.70;99.90;;;;;;5095593;28;19916;-80
2022/09/26 04:24:25;;;;;;;;;;;11.80;99.90;;;;;;5095509;28;19946;-81
2022/09/26 04:26:51;;;;;;;;;;;11.90;99.90;;;;;;5095196;28;20280;-77
2022/09/26 04:29:16;;;;;;;;;;;11.80;99.90;;;;;;5095450;28;19908;-77
2022/09/26 04:31:42;;;;;;;;;;;11.90;99.90;;;;;;5095447;28;19908;-78
2022/09/26 04:34:08;;;;;;;;;;;11.80;99.90;;;;;;5095346;28;19992;-77
2022/09/26 04:36:34;;;;;;;;;;;11.50;99.90;;;;;;5095314;28;20258;-79
2022/09/26 04:38:59;;;;;;;;;;;11.40;99.90;;;;;;5095210;28;19962;-79
2022/09/26 04:41:26;;;;;;;;;;;11.30;99.90;;;;;;5095476;28;19912;-79
2022/09/26 04:43:56;;;;;;;;;;;11.30;99.90;;;;;;5093519;28;19936;-79
2022/09/26 04:46:22;;;;;;;;;;;11.20;99.90;;;;;;5095122;28;19908;-79
2022/09/26 04:48:49;;;;;;;;;;;11.20;99.90;;;;;;5095335;28;19927;-77
2022/09/26 04:51:15;;;;;;;;;;;11.20;99.90;;;;;;5094975;28;19931;-81
2022/09/26 04:53:41;;;;;;;;;;;11.20;99.90;;;;;;5094972;28;19908;-80
2022/09/26 04:56:09;;;;;;;;;;;11.20;99.90;;;;;;5095203;28;20357;-79
2022/09/26 04:58:36;;;;;;;;;;;11.10;99.90;;;;;;5094786;28;19986;-80
2022/09/26 05:01:03;;;;;;;;;;;11.10;99.90;;;;;;5093530;28;19908;-76
2022/09/26 05:03:29;;;;;;;;;;;11.00;99.90;;;;;;5093468;28;19909;-78
2022/09/26 05:05:55;;;;;;;;;;;11.10;99.90;;;;;;5094739;28;20364;-80
2022/09/26 05:08:22;;;;;;;;;;;11.20;99.90;;;;;;5094675;28;19946;-79
2022/09/26 05:11:06;;;;;;;;;;;11.30;99.90;;;;;;5094660;28;19915;-80
2022/09/26 05:13:31;;;;;;;;;;;11.40;99.90;;;;;;5094986;28;19911;-82
2022/09/26 05:15:58;;;;;;;;;;;11.60;99.90;;;;;;5094565;28;19914;-78
2022/09/26 05:18:25;;;;;;;;;;;11.80;99.90;;;;;;5094531;28;19912;-80
2022/09/26 05:20:51;;;;;;;;;;;11.70;99.90;;;;;;5094674;28;19912;-77
2022/09/26 05:26:21;;;;;;;;;;;11.70;99.90;;;;;;5094509;28;20355;-78
2022/09/26 05:29:03;;;;;;;;;;;11.70;99.90;;;;;;5094392;28;20275;-78
2022/09/26 05:31:31;;;;;;;;;;;11.70;99.90;;;;;;5094448;28;19954;-77
2022/09/26 05:33:56;;;;;;;;;;;11.70;99.90;;;;;;5094270;28;19916;-79
2022/09/26 05:36:23;;;;;;;;;;;11.80;99.90;;;;;;5094292;28;19909;-80
2022/09/26 05:38:49;;;;;;;;;;;11.90;99.90;;;;;;5094081;28;19935;-79
2022/09/26 05:41:15;;;;;;;;;;;11.90;99.90;;;;;;5094486;28;19912;-77
2022/09/26 05:43:41;;;;;;;;;;;11.90;99.90;;;;;;5094266;28;19915;-82
2022/09/26 05:46:08;;;;;;;;;;;12.00;99.90;;;;;;5093966;28;19908;-81
2022/09/26 05:48:35;;;;;;;;;;;12.00;99.90;;;;;;5094360;28;20296;-79
2022/09/26 05:51:20;;;;;;;;;;;12.00;99.90;;;;;;5093958;28;19908;-81
2022/09/26 05:53:46;;;;;;;;;;;12.00;99.90;;;;;;5094281;28;20257;-82
2022/09/26 05:56:12;;;;;;;;;;;12.00;99.90;;;;;;5093317;28;19909;-78
2022/09/26 05:58:38;;;;;;;;;;;12.00;99.90;;;;;;5093792;28;19912;-80
2022/09/26 06:01:04;;;;;;;;;;;12.00;99.90;;;;;;5093884;28;19954;-79
2022/09/26 06:03:33;;;;;;;;;;;12.00;99.90;;;;;;5093931;28;19955;-82
2022/09/26 06:06:06;;;;;;;;;;;12.10;99.90;;;;;;5093820;28;19958;-80
2022/09/26 06:08:33;;;;;;;;;;;12.10;99.90;;;;;;5093886;28;20000;-79
2022/09/26 06:11:03;;;;;;;;;;;12.10;99.90;;;;;;5093761;28;19915;-78
2022/09/26 06:13:29;;;;;;;;;;;12.10;99.90;;;;;;5093750;28;19914;-77
2022/09/26 06:15:56;;;;;;;;;;;12.10;99.90;;;;;;5093747;28;19973;-81
2022/09/26 06:18:22;;;;;;;;;;;12.10;99.90;;;;;;5093618;28;19961;-79
2022/09/26 06:20:47;;;;;;;;;;;12.20;99.90;;;;;;5093713;28;19912;-81
2022/09/26 06:23:13;;;;;;;;;;;12.20;99.90;;;;;;5093977;28;20299;-78
2022/09/26 06:25:38;;;;;;;;;;;12.20;99.90;;;;;;5094005;28;19915;-80
2022/09/26 06:28:04;;;;;;;;;;;12.30;99.90;;;;;;5093602;28;19908;-82
2022/09/26 06:30:29;;;;;;;;;;;12.30;99.90;;;;;;5093641;28;19909;-77
2022/09/26 06:32:56;;;;;;;;;;;12.40;99.90;;;;;;5093754;28;20364;-80
2022/09/26 06:35:22;;;;;;;;;;;12.40;99.90;;;;;;5093574;28;20059;-81
2022/09/26 06:37:48;;;;;;;;;;;12.40;99.90;;;;;;5093491;28;19919;-80
2022/09/26 06:40:14;;;;;;;;;;;12.40;99.90;;;;;;5093588;28;19908;-77
2022/09/26 06:42:40;;;;;;;;;;;12.50;99.90;;;;;;5092170;28;19947;-77
2022/09/26 06:45:06;;;;;;;;;;;12.60;99.90;;;;;;5093392;28;20387;-78
2022/09/26 06:47:32;;;;;;;;;;;12.70;99.90;;;;;;5093972;28;19908;-81
2022/09/26 06:49:58;;;;;;;;;;;12.70;99.90;;;;;;5093006;28;19926;-82
2022/09/26 06:52:25;;;;;;;;;;;12.70;99.90;;;;;;5093405;28;19914;-80
2022/09/26 06:54:51;;;;;;;;;;;12.90;99.90;;;;;;5093558;28;19977;-80
2022/09/26 06:57:16;;;;;;;;;;;13.00;99.90;;;;;;5093320;28;20269;-82
2022/09/26 06:59:42;;;;;;;;;;;12.90;99.90;;;;;;5093297;28;20375;-78
2022/09/26 07:02:08;;;;;;;;;;;13.00;99.90;;;;;;5093332;28;19930;-80
2022/09/26 07:04:34;;;;;;;;;;;13.10;99.90;;;;;;5093301;28;19909;-83
2022/09/26 07:07:00;;;;;;;;;;;13.10;99.90;;;;;;5095193;28;20384;-78
2022/09/26 07:09:25;;;;;;;;;;;13.20;99.90;;;;;;5097006;28;19915;-78
2022/09/26 07:11:51;;;;;;;;;;;13.20;99.90;;;;;;5096978;28;20440;-81
2022/09/26 07:14:17;;;;;;;;;;;13.20;99.90;;;;;;5097170;28;19908;-81
2022/09/26 07:16:43;;;;;;;;;;;13.10;99.90;;;;;;5096998;28;20292;-78
2022/09/26 07:19:10;;;;;;;;;;;13.10;99.90;;;;;;5096737;28;19912;-79
2022/09/26 07:21:36;;;;;;;;;;;13.20;99.90;;;;;;5096972;28;20429;-80
2022/09/26 07:24:01;;;;;;;;;;;13.30;99.90;;;;;;5096708;28;19908;-82
2022/09/26 07:26:27;;;;;;;;;;;13.30;99.90;;;;;;5096777;28;20354;-82
2022/09/26 07:28:53;;;;;;;;;;;13.30;99.90;;;;;;5096687;28;19908;-79
2022/09/26 07:31:18;;;;;;;;;;;13.40;99.90;;;;;;5096992;28;20279;-79
2022/09/26 07:33:44;;;;;;;;;;;13.40;99.90;;;;;;5096913;28;19914;-82
2022/09/26 07:36:10;;;;;;;;;;;13.50;99.90;;;;;;5097676;28;19908;-81
2022/09/26 07:38:36;;;;;;;;;;;13.60;99.90;;;;;;5097216;28;19916;-79
2022/09/26 07:41:01;;;;;;;;;;;13.50;99.90;;;;;;5096433;28;19908;-77
2022/09/26 07:43:27;;;;;;;;;;;13.50;99.90;;;;;;5096356;28;19908;-82
2022/09/26 07:51:22;;;;;;;;;;;13.70;99.90;;;;;;5096173;28;19962;-79
2022/09/26 07:53:47;;;;;;;;;;;13.70;99.90;;;;;;5096389;28;19951;-78
2022/09/26 07:56:15;;;;;;;;;;;13.60;99.90;;;;;;5095082;28;19912;-81
2022/09/26 07:58:42;;;;;;;;;;;13.60;99.90;;;;;;5096044;28;20049;-81
2022/09/26 08:01:14;;;;;;;;;;;13.70;99.90;;;;;;5096020;28;19915;-80
2022/09/26 08:03:41;;;;;;;;;;;13.80;99.90;;;;;;5096214;28;19965;-78
2022/09/26 08:06:07;;;;;;;;;;;13.70;99.90;;;;;;5095911;28;19916;-79
2022/09/26 08:08:33;;;;;;;;;;;13.60;99.90;;;;;;5095843;28;19908;-79
2022/09/26 08:10:58;;;;;;;;;;;13.60;99.90;;;;;;5095837;28;19908;-79
2022/09/26 08:13:25;;;;;;;;;;;13.70;99.90;;;;;;5095854;28;19954;-80
2022/09/26 08:15:51;;;;;;;;;;;13.80;99.90;;;;;;5095705;28;19914;-80
2022/09/26 08:18:16;;;;;;;;;;;13.80;99.90;;;;;;5095018;28;19959;-79
2022/09/26 08:20:46;;;;;;;;;;;13.90;99.90;;;;;;5095673;28;19957;-82
2022/09/26 08:23:13;;;;;;;;;;;14.00;99.90;;;;;;5096017;28;20376;-81
2022/09/26 08:25:39;;;;;;;;;;;14.00;99.90;;;;;;5095581;28;19946;-81
2022/09/26 08:28:11;;;;;;;;;;;14.20;99.90;;;;;;5095531;28;19912;-77
2022/09/26 08:30:36;;;;;;;;;;;14.20;99.90;;;;;;5096011;28;19908;-77
2022/09/26 08:33:02;;;;;;;;;;;14.40;99.90;;;;;;5095360;28;19916;-82
2022/09/26 08:35:34;;;;;;;;;;;14.60;99.90;;;;;;5095489;28;19973;-80
2022/09/26 08:38:00;;;;;;;;;;;14.70;99.90;;;;;;5093688;28;19961;-77
2022/09/26 08:40:31;;;;;;;;;;;14.70;99.90;;;;;;5095672;28;20340;-79
2022/09/26 08:43:29;;;;;;;;;;;14.70;99.90;;;;;;5095356;28;19908;-78
2022/09/26 08:48:52;;;;;;;;;;;14.60;99.90;;;;;;5095416;28;20005;-77
2022/09/26 08:51:39;;;;;;;;;;;14.30;99.90;;;;;;5095264;28;19962;-81
2022/09/26 08:54:23;;;;;;;;;;;14.20;99.90;;;;;;5095481;28;19915;-78
2022/09/26 08:56:51;;;;;;;;;;;14.20;99.90;;;;;;5093662;28;19947;-82
2022/09/26 08:59:23;;;;;;;;;;;14.00;99.90;;;;;;5094897;28;20424;-80
2022/09/26 09:01:51;;;;;;;;;;;14.20;99.90;;;;;;5095052;28;19947;-79
2022/09/26 09:04:22;;;;;;;;;;;14.10;99.90;;;;;;5093536;28;19931;-77
2022/09/26 09:06:50;;;;;;;;;;;14.20;99.90;;;;;;5094785;28;19908;-77
2022/09/26 09:09:16;;;;;;;;;;;14.30;99.90;;;;;;5094849;28;19919;-80
2022/09/26 09:12:02;;;;;;;;;;;14.20;99.90;;;;;;5094772;28;20257;-79
2022/09/26 09:14:37;;;;;;;;;;;14.40;99.90;;;;;;5093406;28;20288;-77
2022/09/26 09:17:03;;;;;;;;;;;14.80;99.90;;;;;;5093187;28;19916;-78
2022/09/26 09:19:35;;;;;;;;;;;16.60;99.90;;;;;;5094676;28;19909;-80
2022/09/26 09:22:19;;;;;;;;;;;18.00;99.90;;;;;;5092954;28;20301;-81
2022/09/26 09:24:50;;;;;;;;;;;17.70;99.90;;;;;;5094470;28;19994;-77
2022/09/26 09:27:16;;;;;;;;;;;17.90;99.90;;;;;;5094754;28;20363;-76
2022/09/26 09:29:41;;;;;;;;;;;17.90;99.90;;;;;;5092210;28;19908;-79
2022/09/26 09:32:09;;;;;;;;;;;18.10;99.90;;;;;;5092943;28;19998;-78
2022/09/26 09:34:38;;;;;;;;;;;18.60;99.90;;;;;;5094296;28;20364;-79
2022/09/26 09:37:10;;;;;;;;;;;18.40;99.90;;;;;;5094194;28;19915;-80
2022/09/26 09:39:36;;;;;;;;;;;18.10;99.90;;;;;;5094367;28;20372;-80
2022/09/26 09:42:11;;;;;;;;;;;17.50;99.90;;;;;;5094109;28;19908;-81
2022/09/26 09:44:45;;;;;;;;;;;17.10;99.90;;;;;;5094115;28;20451;-80
2022/09/26 09:47:15;;;;;;;;;;;16.90;99.90;;;;;;5092819;28;19915;-80
2022/09/26 09:49:41;;;;;;;;;;;17.20;99.90;;;;;;5094335;28;19954;-80
2022/09/26 09:52:13;;;;;;;;;;;17.40;99.90;;;;;;5094143;28;19909;-81
2022/09/26 09:54:44;;;;;;;;;;;17.00;99.90;;;;;;5093987;28;19931;-78
2022/09/26 09:57:19;;;;;;;;;;;16.80;99.90;;;;;;5093836;28;20361;-81
2022/09/26 10:00:05;;;;;;;;;;;16.70;99.90;;;;;;5094047;28;19915;-78
2022/09/26 10:02:49;;;;;;;;;;;17.00;99.90;;;;;;5092618;28;19908;-80
2022/09/26 10:05:18;;;;;;;;;;;17.20;99.90;;;;;;5093845;28;19908;-79
2022/09/26 10:07:46;;;;;;;;;;;17.20;99.90;;;;;;5093829;28;19916;-78
2022/09/26 10:10:16;;;;;;;;;;;17.70;99.90;;;;;;5092504;28;19961;-80
2022/09/26 10:12:42;;;;;;;;;;;18.00;99.90;;;;;;5093812;28;19954;-79
2022/09/26 10:15:18;;;;;;;;;;;18.10;99.90;;;;;;5093727;28;19912;-79
2022/09/26 10:18:00;;;;;;;;;;;17.50;99.90;;;;;;5094094;28;19999;-78
2022/09/26 10:20:36;;;;;;;;;;;17.10;99.90;;;;;;5093747;28;19955;-79
2022/09/26 10:23:08;;;;;;;;;;;16.80;99.90;;;;;;5093946;28;19915;-80
2022/09/26 10:25:33;;;;;;;;;;;16.70;99.90;;;;;;5094093;28;19962;-80
2022/09/26 10:28:00;;;;;;;;;;;16.40;99.90;;;;;;5093940;28;19908;-82
2022/09/26 10:30:30;;;;;;;;;;;16.40;99.90;;;;;;5092312;28;20292;-78
2022/09/26 10:33:00;;;;;;;;;;;16.70;99.90;;;;;;5093659;28;19912;-80
2022/09/26 10:35:41;;;;;;;;;;;16.70;99.90;;;;;;5093567;28;19912;-76
2022/09/26 10:38:27;;;;;;;;;;;16.60;99.90;;;;;;5093602;28;19964;-80
2022/09/26 10:40:54;;;;;;;;;;;17.10;99.90;;;;;;5093599;28;19916;-78
2022/09/26 10:43:27;;;;;;;;;;;17.80;99.90;;;;;;5097422;28;19909;-79
2022/09/26 10:46:04;;;;;;;;;;;18.90;99.90;;;;;;5097434;28;19908;-80
2022/09/26 10:48:45;;;;;;;;;;;19.70;99.90;;;;;;5097942;28;19927;-77
2022/09/26 10:51:14;;;;;;;;;;;19.30;99.90;;;;;;5097477;28;20291;-79
2022/09/26 10:53:40;;;;;;;;;;;18.80;99.90;;;;;;5096059;28;20279;-78
2022/09/26 10:56:08;;;;;;;;;;;18.60;99.90;;;;;;5097303;28;19912;-80
2022/09/26 10:58:37;;;;;;;;;;;18.70;99.90;;;;;;5097377;28;19935;-82
2022/09/26 11:01:04;;;;;;;;;;;18.80;99.90;;;;;;5097240;28;19908;-78
2022/09/26 11:03:42;;;;;;;;;;;18.30;99.90;;;;;;5097191;28;19908;-80
2022/09/26 11:06:20;;;;;;;;;;;18.00;99.90;;;;;;5097097;28;19909;-79
2022/09/26 11:08:49;;;;;;;;;;;17.80;99.90;;;;;;5097148;28;19998;-81
2022/09/26 11:11:16;;;;;;;;;;;17.40;99.90;;;;;;5096981;28;19914;-78
2022/09/26 11:13:49;;;;;;;;;;;16.90;99.90;;;;;;5095675;28;19940;-80
2022/09/26 11:16:18;;;;;;;;;;;16.70;99.90;;;;;;5095342;28;19908;-77
2022/09/26 11:19:02;;;;;;;;;;;16.50;99.90;;;;;;5096874;28;19919;-79
2022/09/26 11:21:36;;;;;;;;;;;16.60;99.90;;;;;;5096787;28;19908;-79
2022/09/26 11:24:13;;;;;;;;;;;16.40;99.90;;;;;;5095208;28;19908;-79
2022/09/26 11:26:52;;;;;;;;;;;16.50;99.90;;;;;;5097013;28;19930;-78
2022/09/26 11:29:27;;;;;;;;;;;16.40;99.90;;;;;;5096736;28;19919;-79
2022/09/26 11:31:54;;;;;;;;;;;16.50;99.90;;;;;;5096657;28;20401;-80
2022/09/26 11:34:25;;;;;;;;;;;16.80;99.90;;;;;;5096555;28;19990;-79
2022/09/26 11:36:51;;;;;;;;;;;17.10;99.90;;;;;;5096685;28;19995;-79
2022/09/26 11:39:19;;;;;;;;;;;17.30;99.90;;;;;;5096385;28;20007;-79
2022/09/26 11:41:44;;;;;;;;;;;17.20;99.90;;;;;;5096398;28;19999;-79
2022/09/26 11:44:16;;;;;;;;;;;17.10;99.90;;;;;;5096264;28;19999;-80
2022/09/26 11:47:03;;;;;;;;;;;17.10;99.90;;;;;;5096309;28;20284;-79
2022/09/26 11:49:37;;;;;;;;;;;17.10;99.90;;;;;;5096801;28;19921;-78
2022/09/26 11:52:13;;;;;;;;;;;16.90;99.90;;;;;;5096273;28;19909;-79
2022/09/26 11:54:46;;;;;;;;;;;16.80;99.90;;;;;;5095699;28;19909;-80
2022/09/26 11:57:30;;;;;;;;;;;16.70;99.90;;;;;;5096266;28;19943;-79
2022/09/26 12:00:06;;;;;;;;;;;16.60;99.90;;;;;;5096166;28;19912;-79
2022/09/26 12:02:32;;;;;;;;;;;16.40;99.90;;;;;;5096034;28;19908;-80
2022/09/26 12:05:16;;;;;;;;;;;16.50;99.90;;;;;;5095981;28;20368;-78
2022/09/26 12:07:48;;;;;;;;;;;16.90;99.90;;;;;;5096030;28;19916;-77
2022/09/26 12:10:23;;;;;;;;;;;17.90;99.90;;;;;;5095932;28;20372;-77
2022/09/26 12:12:59;;;;;;;;;;;18.60;99.90;;;;;;5095800;28;19931;-77
2022/09/26 12:15:52;;;;;;;;;;;19.20;99.90;;;;;;5096083;28;19908;-80
2022/09/26 12:18:22;;;;;;;;;;;19.30;99.90;;;;;;5072774;28;19919;-79
2022/09/26 12:20:57;;;;;;;;;;;19.00;99.90;;;;;;5094166;28;19915;-77
2022/09/26 12:23:58;;;;;;;;;;;18.40;99.90;;;;;;5095587;28;20360;-78
2022/09/26 12:26:35;;;;;;;;;;;18.60;99.90;;;;;;5062751;28;19909;-79
2022/09/26 12:29:11;;;;;;;;;;;18.50;99.90;;;;;;5095802;28;19908;-77
2022/09/26 12:31:37;;;;;;;;;;;18.30;99.90;;;;;;5095889;28;19908;-80
2022/09/26 12:34:16;;;;;;;;;;;18.50;99.90;;;;;;5094124;28;19908;-78
2022/09/26 12:37:00;;;;;;;;;;;19.00;99.90;;;;;;5095539;28;19908;-78
2022/09/26 12:39:34;;;;;;;;;;;19.30;99.90;;;;;;5095325;28;20376;-80
2022/09/26 12:42:00;;;;;;;;;;;19.30;99.90;;;;;;5095480;28;19954;-79
2022/09/26 12:44:27;;;;;;;;;;;19.30;99.90;;;;;;5095249;28;19912;-80
2022/09/26 12:46:58;;;;;;;;;;;20.10;99.90;;;;;;5093861;28;20288;-79
2022/09/26 12:49:33;;;;;;;;;;;20.80;99.90;;;;;;5095212;28;19929;-80
2022/09/26 12:52:04;;;;;;;;;;;20.50;99.90;;;;;;5095203;28;19908;-81
2022/09/26 12:54:42;;;;;;;;;;;20.40;99.90;;;;;;5094984;28;19908;-80
2022/09/26 12:57:23;;;;;;;;;;;21.20;99.90;;;;;;5095042;28;19908;-80
2022/09/26 13:00:09;;;;;;;;;;;21.70;99.90;;;;;;5095128;28;19908;-78
2022/09/26 13:02:54;;;;;;;;;;;23.20;99.90;;;;;;5094931;28;19908;-79
2022/09/26 13:05:38;;;;;;;;;;;26.20;99.90;;;;;;5094692;28;19947;-81
2022/09/26 13:08:33;;;;;;;;;;;31.30;96.60;;;;;;5094723;28;19965;-78
2022/09/26 13:11:11;;;;;;;;;;;31.70;78.00;;;;;;5040111;28;20292;-80
2022/09/26 13:13:55;;;;;;;;;;;33.80;83.80;;;;;;5094681;28;19995;-76
2022/09/26 13:16:29;;;;;;;;;;;35.10;68.60;;;;;;5094681;28;19915;-79
2022/09/26 13:19:00;;;;;;;;;;;36.50;66.50;;;;;;5094668;28;19912;-78
2022/09/26 13:21:46;;;;;;;;;;;38.40;61.90;;;;;;5094716;28;19919;-76
2022/09/26 13:24:17;;;;;;;;;;;36.30;58.10;;;;;;5094057;28;20037;-80
2022/09/26 13:26:47;;;;;;;;;;;37.70;54.30;;;;;;5092882;28;19908;-77
2022/09/26 13:29:14;;;;;;;;;;;36.60;53.00;;;;;;5094354;28;19916;-78
2022/09/26 13:31:43;;;;;;;;;;;38.70;50.80;;;;;;5094385;28;19915;-79
2022/09/26 13:34:16;;;;;;;;;;;40.20;50.00;;;;;;5094647;28;19930;-81
2022/09/26 13:36:42;;;;;;;;;;;39.90;45.40;;;;;;5094380;28;19957;-77
2022/09/26 13:39:12;;;;;;;;;;;37.30;48.10;;;;;;5094221;28;20376;-78
2022/09/26 13:41:50;;;;;;;;;;;38.70;48.00;;;;;;5094203;28;19911;-76
2022/09/26 13:44:21;;;;;;;;;;;34.80;45.90;;;;;;5094251;28;20376;-80
2022/09/26 13:47:05;;;;;;;;;;;31.70;49.30;;;;;;5094335;28;19912;-79
2022/09/26 13:49:50;;;;;;;;;;;28.40;53.30;;;;;;5094312;28;19920;-75
2022/09/26 13:52:15;;;;;;;;;;;26.00;57.90;;;;;;5093995;28;19908;-78
2022/09/26 13:54:44;;;;;;;;;;;24.10;64.30;;;;;;5094077;28;20006;-75
2022/09/26 13:57:30;;;;;;;;;;;23.30;69.50;;;;;;5093965;28;20284;-78
2022/09/26 13:59:56;;;;;;;;;;;22.80;73.40;;;;;;5092607;28;20326;-78
2022/09/26 14:02:23;;;;;;;;;;;22.10;79.30;;;;;;5093970;28;19944;-78
2022/09/26 14:04:52;;;;;;;;;;;21.70;83.70;;;;;;5093997;28;19908;-79
2022/09/26 14:10:18;;;;;;;;;;;20.90;88.60;;;;;;5091989;28;20348;-82
2022/09/26 14:13:02;;;;;;;;;;;20.70;91.60;;;;;;5093973;28;19909;-79
2022/09/26 14:15:46;;;;;;;;;;;20.70;91.70;;;;;;5093001;28;20360;-80
2022/09/26 14:18:26;;;;;;;;;;;20.80;90.10;;;;;;5099198;28;19956;-80
2022/09/26 14:21:11;;;;;;;;;;;21.30;89.50;;;;;;5100609;28;20343;-82
2022/09/26 14:23:44;;;;;;;;;;;21.50;87.70;;;;;;5100454;28;20002;-79
2022/09/26 14:26:20;;;;;;;;;;;21.70;88.60;;;;;;5100685;28;19908;-79
2022/09/26 14:28:53;;;;;;;;;;;22.30;85.10;;;;;;5100352;28;19916;-80
2022/09/26 14:31:30;;;;;;;;;;;23.50;77.40;;;;;;5100105;28;19908;-82
2022/09/26 14:34:18;;;;;;;;;;;22.40;77.20;;;;;;5100455;28;20389;-78
2022/09/26 14:36:44;;;;;;;;;;;21.20;80.00;;;;;;5100578;28;20386;-79
2022/09/26 14:39:30;;;;;;;;;;;20.50;85.70;;;;;;5100628;28;19908;-80
2022/09/26 14:41:57;;;;;;;;;;;20.10;89.20;;;;;;5100416;28;20398;-78
2022/09/26 14:44:26;;;;;;;;;;;20.00;90.20;;;;;;5100263;28;19931;-80
2022/09/26 14:46:53;;;;;;;;;;;19.90;91.10;;;;;;5100214;28;19908;-81
2022/09/26 14:49:22;;;;;;;;;;;19.90;90.30;;;;;;5100465;28;20440;-79